Dalton, MO (65246)

9:35 AM CDT on October 22, 2014 (GMT -0500)
Barlow Back Yard | Change Station
CLOSE
Current Station
Personal Weather Station
Location: Hale, MO
Elevation: 755 ft
Nearby Weather Stations

Elev 755 ft 39.59 °N, 93.30 °W | Updated 7 minutes ago

Mostly Cloudy
Mostly Cloudy
53.4 °F
Feels Like 53.4 °F
N
7.8
Wind Variable Wind from SE

Today
High -- | Low -- °F
--% Chance of Precip.
Yesterday
High -- | Low -- °F
Precip. -- in
7:29 AM 6:23 PM
Waning Crescent, 2% visible
Pressure 30.28 in
Visibility 0.2 miles
Clouds
Dew Point 45 °F
Humidity 74%
Rainfall 0.00 in
Snow Depth Not available.
UV Not available.
Pollen 2.70 out of 12
Air Quality Not available.
Flu Activity No Activity
METAR KVER 221415Z AUTO 14006KT M1/4SM HZ VV000 10/06 A3028 RMK AO2 T00990060

More Conditions Fewer Conditions

Pressure 30.28 in
Visibility 0.2 miles
Clouds
Dew Point 45 °F
Humidity 74%
Rainfall 0.00 in
Snow Depth Not available.
UV Not available.
Pollen 2.70 out of 12
Air Quality Not available.
Flu Activity No Activity
METAR KVER 221415Z AUTO 14006KT M1/4SM HZ VV000 10/06 A3028 RMK AO2 T00990060

More Conditions Fewer Conditions

10-Day Weather Forecast

Almanac

Astronomy

Oct. 22, 2014 Rise Set
Actual Time 7:29 AM CDT 6:23 PM CDT
Civil Twilight 7:01 AM CDT 6:50 PM CDT
Nautical Twilight 6:30 AM CDT 7:21 PM CDT
Astronomical Twilight 5:59 AM CDT 7:52 PM CDT
Moon 6:11 AM CDT 5:49 PM CDT
Length of Visible Light 11h 48m
Length of Day
10h 53m
Tomorrow will be 2m 23s shorter.
Waning Crescent, 2% of the Moon is Illuminated
Today
Waning Crescent
Oct 23
New
Oct 30
First Quarter
Nov 6
Full
Nov 14
Last Quarter

Today's Extremes

State Highs State Lows

Community

WunderPhotos

Upload Photos

1,763,935 photos uploaded!

WunderBlogs® & News

Nearby

Snow Depth

Station Depth Elevation
No new snow has been reported.

Earthquake Activity

City Distance Mag. Time & Date
No recent earthquake activity has been reported nearby.
Minimum magnitude displayed is 2.5.

Coastal Water Temperatures

Place Temperature
No Stations Reporting

Nearby Weather Stations